Etusivu
METAR-TAF:

METAR-TAF

Lentoasemat :

Cognac, Ranska

Leveyspiiri: 45-40N, Pituuspiiri: 000-19W, korkeus merenpinnasta: 30 m

Tämänhetkinen sää

Tämä raportti tehtiin 30 minuuttia sitten, kello 05.30 UTC
Tuuli 3 kn etelästä/lounaasta
Lämpötila 18°C
Kosteus 88%
Ilmanpaine 1020 hPa
Näkyvyys 10 km tai enemmän
Pilvistä 4300 ft:n korkeudessa

METAR: LFBG 170530Z AUTO 21003KT 9999 OVC043 18/16 Q1020 NOSIG

Aika: 08:00 (06:00 UTC)

Sääennuste

Tämä raportti tehtiin 4 tuntia ja 0 minuuttia sitten, kello 02.00 UTC
Ennuste voimassa 17. päivästä klo 03 UTC - 18. päivään klo 03 UTC
Tuuli 5 kn lännestä
Näkyvyys 10 km tai enemmän
Hajonneita pilviä 4000 ft:n korkeudessa

TAF: LFBG 170200Z 1703/1803 26005KT 9999 BKN040

Säähavainnot ja -ennusteet yli 4000 lentoasemalta (METAR- ja TAF-raportit).

Käytössä olevat sääasemat on merkitty karttaan keltaisilla ja punaisilla pisteillä.

Aseta hiiri pisteen päälle nähdäksesi sääaseman nimen.

Klikkaa sitten nähdäksesi säähavainnot ja -ennusteet.

Kartan vaihtaminen: klikkaa mustalla rastilla varustettuja vihreitä pisteitä, niin voit zoomata sisään; viivalla varustettua vihreää pistettä, niin voit zoomata ulos tai vihreitä nuolia, niin pääset viereisille kartoille.


METAR-TAF: